Time;durP1;ratioP1;P1;durP2;ratioP2;P2;SDS_P1;SDS_P2;PMS_P1;PMS_P2;Temp;Humidity;BMP_temperature;BMP_pressure;BME280_temperature;BME280_humidity;BME280_pressure;Samples;Min_cycle;Max_cycle;Signal;HPM_P1;HPM_P2
2023/09/13 00:02:23;;;;;;;7.80;3.20;;;;;;;20.65;44.56;100815.88;108064;1280;21993;-57
2023/09/13 00:04:48;;;;;;;4.90;3.10;;;;;;;20.63;44.59;100817.38;108013;1288;22001;-68
2023/09/13 00:07:14;;;;;;;6.20;2.90;;;;;;;20.60;44.73;100817.15;108058;1283;21999;-70
2023/09/13 00:09:41;;;;;;;6.80;3.20;;;;;;;20.59;44.82;100817.91;108010;1286;21990;-70
2023/09/13 00:12:10;;;;;;;4.40;2.80;;;;;;;20.58;44.89;100819.77;107996;1288;21989;-59
2023/09/13 00:14:36;;;;;;;9.10;2.80;;;;;;;20.55;44.95;100822.03;108040;1286;22003;-59
2023/09/13 00:17:02;;;;;;;5.70;3.00;;;;;;;20.52;45.00;100820.41;108015;1283;21997;-70
2023/09/13 00:19:27;;;;;;;5.00;3.00;;;;;;;20.50;45.15;100821.38;108047;1286;22069;-71
2023/09/13 00:21:54;;;;;;;7.00;3.60;;;;;;;20.50;45.20;100824.25;108031;1283;24310;-71
2023/09/13 00:24:19;;;;;;;4.60;2.80;;;;;;;20.49;45.29;100821.08;107995;1286;21985;-71
2023/09/13 00:26:45;;;;;;;5.40;3.10;;;;;;;20.49;45.34;100820.34;107985;1283;21992;-59
2023/09/13 00:29:11;;;;;;;11.10;3.10;;;;;;;20.49;45.44;100822.13;107998;1278;21998;-70
2023/09/13 00:31:36;;;;;;;5.50;3.20;;;;;;;20.46;45.48;100822.44;108013;1283;22037;-58
2023/09/13 00:34:02;;;;;;;4.90;3.30;;;;;;;20.44;45.60;100822.94;107982;1280;22027;-59
2023/09/13 00:36:27;;;;;;;5.30;3.00;;;;;;;20.40;45.74;100826.11;107980;1287;21992;-58
2023/09/13 00:38:53;;;;;;;6.00;3.10;;;;;;;20.38;45.85;100827.11;107980;1283;22000;-59
2023/09/13 00:41:19;;;;;;;7.10;2.80;;;;;;;20.36;45.90;100828.42;107974;1281;21990;-70
2023/09/13 00:43:44;;;;;;;5.40;3.20;;;;;;;20.35;45.89;100827.20;108049;1283;22009;-71
2023/09/13 00:46:10;;;;;;;6.30;3.50;;;;;;;20.35;45.95;100827.39;108104;1288;21989;-59
2023/09/13 00:48:36;;;;;;;5.30;3.00;;;;;;;20.34;46.06;100829.04;107794;1286;22027;-70
2023/09/13 00:51:02;;;;;;;5.50;3.30;;;;;;;20.34;46.05;100829.77;108011;1284;21994;-71
2023/09/13 00:53:27;;;;;;;5.40;2.90;;;;;;;20.35;46.28;100827.95;108052;1288;21994;-59
2023/09/13 00:55:53;;;;;;;6.30;3.10;;;;;;;20.35;46.25;100828.83;108018;1288;22003;-59
2023/09/13 00:58:19;;;;;;;4.50;2.70;;;;;;;20.37;46.26;100825.39;107771;1280;21988;-59
2023/09/13 01:00:45;;;;;;;5.60;3.10;;;;;;;20.40;46.24;100824.16;107807;1288;21997;-65
2023/09/13 01:03:11;;;;;;;5.30;3.50;;;;;;;20.40;46.17;100821.86;108129;1283;21999;-60
2023/09/13 01:05:36;;;;;;;5.70;3.30;;;;;;;20.38;46.21;100820.33;107826;1286;21988;-59
2023/09/13 01:08:03;;;;;;;5.10;3.10;;;;;;;20.36;46.17;100814.17;108052;1288;22020;-58
2023/09/13 01:10:29;;;;;;;4.80;2.60;;;;;;;20.32;46.11;100817.01;108022;1280;22046;-59
2023/09/13 01:12:55;;;;;;;8.00;2.70;;;;;;;20.30;46.41;100817.50;108095;1276;22027;-71
2023/09/13 01:15:22;;;;;;;4.80;2.70;;;;;;;20.30;46.43;100815.55;107845;1287;21988;-71
2023/09/13 01:17:58;;;;;;;5.50;2.80;;;;;;;20.29;46.35;100812.75;108064;1283;22000;-71
2023/09/13 01:20:45;;;;;;;3.70;2.70;;;;;;;20.27;46.50;100813.00;107889;1279;21958;-71
2023/09/13 01:23:27;;;;;;;4.60;2.90;;;;;;;20.26;46.60;100813.77;108068;1288;21946;-59
2023/09/13 01:26:32;;;;;;;5.50;2.70;;;;;;;20.22;46.60;100814.66;108052;1283;22455;-70
2023/09/13 01:28:59;;;;;;;5.90;3.30;;;;;;;20.17;46.69;100815.96;108056;1288;21994;-59
2023/09/13 01:31:27;;;;;;;5.30;2.50;;;;;;;20.14;46.67;100815.34;108024;1283;21990;-59
2023/09/13 01:33:53;;;;;;;4.90;3.00;;;;;;;20.13;46.77;100813.79;108079;1283;22004;-58
2023/09/13 01:36:18;;;;;;;5.70;3.40;;;;;;;20.10;46.74;100815.53;108023;1287;22247;-71
2023/09/13 01:38:44;;;;;;;7.60;3.30;;;;;;;20.06;46.82;100812.88;108074;1283;21989;-71
2023/09/13 01:41:19;;;;;;;6.80;3.00;;;;;;;20.03;46.84;100815.83;107816;1288;21992;-60
2023/09/13 01:43:44;;;;;;;6.10;3.40;;;;;;;20.01;46.92;100817.73;108078;1288;22030;-71
2023/09/13 01:46:11;;;;;;;4.90;3.00;;;;;;;19.97;46.92;100814.86;108070;1283;22026;-58
2023/09/13 01:48:37;;;;;;;4.30;3.10;;;;;;;19.93;47.02;100815.61;108102;1287;21992;-60
2023/09/13 01:51:02;;;;;;;8.40;3.10;;;;;;;19.89;47.15;100818.61;107827;1288;21989;-72
2023/09/13 01:53:28;;;;;;;5.00;3.10;;;;;;;19.86;47.18;100821.05;107823;1288;21991;-71
2023/09/13 01:55:54;;;;;;;6.90;3.00;;;;;;;19.84;47.17;100816.67;108105;1284;22207;-59
2023/09/13 01:58:20;;;;;;;4.50;3.10;;;;;;;19.82;47.25;100814.63;108032;1288;23780;-71
2023/09/13 02:00:45;;;;;;;7.40;3.10;;;;;;;19.80;47.45;100811.16;108020;1279;21998;-59
2023/09/13 02:03:12;;;;;;;6.30;3.40;;;;;;;19.78;47.44;100815.86;108085;1288;21989;-58
2023/09/13 02:05:37;;;;;;;6.50;3.10;;;;;;;19.70;47.71;100815.48;108068;1286;21987;-72
2023/09/13 02:08:04;;;;;;;9.30;3.40;;;;;;;19.62;47.98;100812.64;108095;1284;22045;-58
2023/09/13 02:10:29;;;;;;;8.00;3.70;;;;;;;19.59;48.04;100811.70;108121;1286;21995;-58
2023/09/13 02:12:55;;;;;;;10.00;3.80;;;;;;;19.56;48.30;100811.45;108013;1283;21985;-56
2023/09/13 02:15:20;;;;;;;5.20;3.20;;;;;;;19.57;48.20;100813.38;108032;1278;21990;-58
2023/09/13 02:17:46;;;;;;;6.50;3.50;;;;;;;19.61;48.10;100812.66;108037;1283;21990;-58
2023/09/13 02:20:12;;;;;;;6.90;3.40;;;;;;;19.63;48.19;100814.20;108036;1288;21989;-58
2023/09/13 02:22:37;;;;;;;7.90;4.10;;;;;;;19.62;48.15;100811.94;108007;1286;22940;-71
2023/09/13 02:25:04;;;;;;;4.80;3.20;;;;;;;19.60;48.18;100814.69;107997;1288;22000;-70
2023/09/13 02:27:32;;;;;;;6.60;3.60;;;;;;;19.58;48.09;100815.48;108056;1288;21995;-70
2023/09/13 02:29:58;;;;;;;7.90;3.60;;;;;;;19.56;48.17;100813.09;108054;1286;22011;-57
2023/09/13 02:32:23;;;;;;;5.70;3.10;;;;;;;19.54;48.29;100811.90;108060;1283;22031;-58
2023/09/13 02:34:49;;;;;;;6.70;3.70;;;;;;;19.55;48.44;100812.58;108032;1288;21990;-58
2023/09/13 02:37:15;;;;;;;7.50;3.60;;;;;;;19.56;48.58;100811.99;108054;1283;21990;-68
2023/09/13 02:39:41;;;;;;;7.30;3.50;;;;;;;19.57;48.73;100811.96;108075;1283;21992;-70
2023/09/13 02:42:07;;;;;;;9.00;3.30;;;;;;;19.58;48.77;100815.83;108095;1288;22104;-58
2023/09/13 02:44:33;;;;;;;4.70;3.10;;;;;;;19.58;48.90;100816.91;108036;1283;22029;-57
2023/09/13 02:46:59;;;;;;;5.70;3.00;;;;;;;19.58;49.06;100817.94;108074;1280;21987;-57
2023/09/13 02:49:25;;;;;;;10.50;3.50;;;;;;;19.60;49.11;100817.34;108043;1288;21996;-57
2023/09/13 02:51:51;;;;;;;5.80;3.00;;;;;;;19.62;49.27;100816.36;108047;1284;21998;-70
2023/09/13 02:54:17;;;;;;;4.90;2.90;;;;;;;19.64;49.35;100813.29;108071;1288;21994;-70
2023/09/13 02:56:44;;;;;;;12.00;3.80;;;;;;;19.65;49.39;100809.64;108075;1288;21992;-71
2023/09/13 02:59:09;;;;;;;7.40;3.60;;;;;;;19.67;49.45;100808.48;107276;1283;1002579;-58
2023/09/13 03:01:35;;;;;;;6.70;3.20;;;;;;;19.68;49.51;100809.70;108026;1282;22031;-71
2023/09/13 03:04:01;;;;;;;10.90;3.20;;;;;;;19.69;49.52;100807.85;108029;1283;22032;-71
2023/09/13 03:06:26;;;;;;;13.00;3.60;;;;;;;19.73;49.64;100804.34;108041;1286;22010;-64
2023/09/13 03:08:52;;;;;;;6.30;3.50;;;;;;;19.74;49.65;100803.55;108030;1286;21987;-58
2023/09/13 03:11:18;;;;;;;10.20;3.60;;;;;;;19.76;49.66;100804.89;108004;1279;21992;-72
2023/09/13 03:13:44;;;;;;;11.20;3.40;;;;;;;19.78;49.77;100804.46;108084;1283;23557;-71
2023/09/13 03:16:20;;;;;;;8.80;3.40;;;;;;;19.80;49.78;100806.51;108057;1285;21990;-58
2023/09/13 03:18:47;;;;;;;7.90;3.70;;;;;;;19.81;49.81;100805.58;108022;1286;21993;-73
2023/09/13 03:21:12;;;;;;;7.20;3.60;;;;;;;19.81;49.88;100808.44;108101;1287;21987;-70
2023/09/13 03:23:40;;;;;;;7.80;3.30;;;;;;;19.82;50.07;100808.40;108045;1288;21988;-70
2023/09/13 03:26:15;;;;;;;5.90;3.20;;;;;;;19.83;50.06;100807.27;108049;1286;22030;-70
2023/09/13 03:28:42;;;;;;;13.40;3.70;;;;;;;19.84;50.10;100812.73;108049;1283;21990;-58
2023/09/13 03:31:10;;;;;;;14.40;3.70;;;;;;;19.85;50.05;100813.39;108086;1288;21993;-58
2023/09/13 03:33:36;;;;;;;12.80;3.90;;;;;;;19.87;50.15;100814.39;108063;1286;22003;-59
2023/09/13 03:36:02;;;;;;;17.30;4.00;;;;;;;19.88;50.05;100818.09;108002;1283;22006;-72
2023/09/13 03:38:27;;;;;;;8.90;3.30;;;;;;;19.89;50.24;100818.77;108075;1288;22007;-58
2023/09/13 03:40:53;;;;;;;11.00;3.40;;;;;;;19.90;50.25;100823.36;108010;1280;22010;-58
2023/09/13 03:43:18;;;;;;;15.50;3.80;;;;;;;19.90;50.27;100822.30;108040;1288;22011;-58
2023/09/13 03:45:44;;;;;;;6.80;3.30;;;;;;;19.91;50.33;100824.38;108015;1286;21995;-58
2023/09/13 03:48:09;;;;;;;13.40;3.40;;;;;;;19.93;50.30;100826.64;108002;1283;21995;-58
2023/09/13 03:50:35;;;;;;;8.10;3.40;;;;;;;19.94;50.32;100825.89;108002;1288;21991;-59
2023/09/13 03:53:01;;;;;;;9.60;4.10;;;;;;;19.94;50.34;100828.38;108027;1288;22005;-58
2023/09/13 03:55:28;;;;;;;11.40;2.90;;;;;;;19.96;50.25;100830.79;108037;1283;22002;-73
2023/09/13 03:57:53;;;;;;;8.40;3.70;;;;;;;19.98;50.40;100828.53;108034;1283;21999;-58
2023/09/13 04:00:19;;;;;;;19.40;3.50;;;;;;;20.02;50.52;100833.70;108037;1288;21990;-73
2023/09/13 04:02:45;;;;;;;12.00;3.80;;;;;;;20.05;50.68;100838.39;107937;1279;23078;-57
2023/09/13 04:05:11;;;;;;;16.50;4.10;;;;;;;20.10;50.59;100834.80;108024;1286;21984;-72
2023/09/13 04:07:37;;;;;;;12.90;3.80;;;;;;;20.14;50.66;100835.52;107765;1288;22008;-57
2023/09/13 04:10:03;;;;;;;11.30;3.70;;;;;;;20.18;50.73;100835.11;108055;1283;21995;-73
2023/09/13 04:12:29;;;;;;;8.40;3.30;;;;;;;20.24;50.75;100835.25;108081;1284;22133;-59
2023/09/13 04:14:54;;;;;;;6.50;3.40;;;;;;;20.28;50.76;100838.45;107853;1288;23634;-73
2023/09/13 04:17:20;;;;;;;13.10;3.60;;;;;;;20.32;50.75;100842.15;108072;1288;21992;-73
2023/09/13 04:19:46;;;;;;;12.50;3.70;;;;;;;20.37;50.83;100845.50;108048;1283;21987;-73
2023/09/13 04:22:16;;;;;;;14.20;3.50;;;;;;;20.42;50.89;100842.98;108042;1288;22323;-58
2023/09/13 04:24:45;;;;;;;10.90;3.20;;;;;;;20.47;50.75;100844.15;108048;1288;21997;-58
2023/09/13 04:27:10;;;;;;;12.60;3.60;;;;;;;20.54;50.84;100842.95;108107;1280;21988;-74
2023/09/13 04:29:39;;;;;;;11.40;3.70;;;;;;;20.58;51.05;100840.42;108082;1288;21998;-58
2023/09/13 04:32:06;;;;;;;12.00;4.20;;;;;;;20.62;51.26;100839.73;108074;1284;22000;-74
2023/09/13 04:34:36;;;;;;;22.60;4.50;;;;;;;20.64;51.39;100845.33;108093;1288;22029;-58
2023/09/13 04:37:03;;;;;;;38.80;5.60;;;;;;;20.72;51.54;100845.52;108123;1287;21990;-58
2023/09/13 04:39:31;;;;;;;45.30;5.80;;;;;;;20.79;51.91;100845.73;107943;1288;21991;-73
2023/09/13 04:41:59;;;;;;;12.60;3.70;;;;;;;20.87;51.84;100844.83;108129;1282;22028;-72
2023/09/13 04:44:28;;;;;;;10.60;3.30;;;;;;;20.95;51.71;100841.60;108078;1288;22010;-71
2023/09/13 04:46:53;;;;;;;11.80;3.30;;;;;;;21.02;51.73;100840.51;108032;1283;21997;-72
2023/09/13 04:49:19;;;;;;;11.80;3.80;;;;;;;21.09;51.88;100840.17;108114;1283;23055;-58
2023/09/13 04:51:44;;;;;;;16.40;3.50;;;;;;;21.15;51.73;100842.21;108038;1283;21988;-72
2023/09/13 04:54:10;;;;;;;18.50;3.80;;;;;;;21.22;51.71;100838.65;108090;1280;21990;-72
2023/09/13 04:56:38;;;;;;;8.50;3.60;;;;;;;21.31;51.87;100835.20;108114;1286;21988;-71
2023/09/13 04:59:04;;;;;;;15.00;3.70;;;;;;;21.41;52.31;100833.77;108076;1288;22000;-72
2023/09/13 05:01:30;;;;;;;11.60;3.80;;;;;;;21.52;52.33;100835.74;108086;1283;22017;-58
2023/09/13 05:03:57;;;;;;;10.10;3.60;;;;;;;21.63;52.19;100837.16;108079;1280;22059;-71
2023/09/13 05:06:23;;;;;;;10.50;3.40;;;;;;;21.76;52.37;100833.30;108169;1286;21998;-71
2023/09/13 05:08:49;;;;;;;15.40;3.20;;;;;;;21.89;52.34;100832.80;107985;1283;21989;-59
2023/09/13 05:11:15;;;;;;;8.70;2.80;;;;;;;22.04;52.65;100832.76;108065;1286;21989;-59
2023/09/13 05:13:41;;;;;;;12.90;3.70;;;;;;;22.18;52.52;100832.36;108079;1288;22002;-58
2023/09/13 05:16:06;;;;;;;9.40;3.00;;;;;;;22.33;52.51;100832.77;108059;1283;22102;-58
2023/09/13 05:18:33;;;;;;;4.40;3.20;;;;;;;22.49;52.29;100833.20;108060;1283;22047;-59
2023/09/13 05:20:59;;;;;;;4.50;2.90;;;;;;;22.64;52.45;100830.95;108123;1288;21992;-59
2023/09/13 05:23:25;;;;;;;8.60;3.00;;;;;;;22.79;52.24;100835.30;107906;1286;21959;-58
2023/09/13 05:25:51;;;;;;;6.20;2.70;;;;;;;22.93;52.00;100836.86;108102;1286;22004;-74
2023/09/13 05:28:16;;;;;;;11.30;2.80;;;;;;;23.07;51.95;100837.67;108091;1277;21999;-60
2023/09/13 05:30:46;;;;;;;8.00;3.00;;;;;;;23.20;51.71;100837.84;108081;1283;22004;-69
2023/09/13 05:33:11;;;;;;;6.20;3.10;;;;;;;23.34;51.75;100838.84;108074;1283;21994;-58
2023/09/13 05:35:37;;;;;;;7.00;2.90;;;;;;;23.49;51.87;100837.56;108084;1288;21994;-58
2023/09/13 05:38:03;;;;;;;9.60;3.50;;;;;;;23.66;51.83;100836.38;108062;1283;21999;-59
2023/09/13 05:40:29;;;;;;;10.30;3.20;;;;;;;23.83;51.59;100839.12;108087;1288;22027;-69
2023/09/13 05:42:55;;;;;;;12.20;3.90;;;;;;;23.99;51.39;100844.27;108133;1288;21996;-58
2023/09/13 05:45:23;;;;;;;9.90;3.70;;;;;;;24.15;51.38;100841.89;108098;1283;22007;-70
2023/09/13 05:47:49;;;;;;;6.60;3.10;;;;;;;24.31;51.20;100841.64;108140;1283;21990;-70
2023/09/13 05:50:15;;;;;;;8.10;2.90;;;;;;;24.47;51.12;100841.32;108051;1283;21993;-57
2023/09/13 05:52:41;;;;;;;5.20;3.10;;;;;;;24.63;50.67;100844.28;108050;1281;21999;-59
2023/09/13 05:55:07;;;;;;;4.60;2.90;;;;;;;24.76;50.27;100845.97;108053;1283;21986;-58
2023/09/13 05:57:33;;;;;;;7.00;2.60;;;;;;;24.86;49.95;100845.12;108077;1288;22457;-69
2023/09/13 05:59:59;;;;;;;6.00;3.00;;;;;;;24.97;49.95;100843.70;108041;1283;21993;-68
2023/09/13 06:02:24;;;;;;;8.50;3.10;;;;;;;25.12;49.95;100845.07;108061;1288;21998;-58
2023/09/13 06:04:50;;;;;;;6.80;2.70;;;;;;;25.27;49.67;100850.39;108048;1288;23056;-69
2023/09/13 06:07:16;;;;;;;5.50;2.40;;;;;;;25.41;49.64;100855.40;108065;1283;21994;-68
2023/09/13 06:09:41;;;;;;;51.10;5.30;;;;;;;25.55;49.35;100850.15;108090;1283;21995;-69
2023/09/13 06:12:07;;;;;;;8.60;2.80;;;;;;;25.69;49.11;100847.05;108055;1279;21990;-69
2023/09/13 06:14:33;;;;;;;8.00;2.70;;;;;;;25.83;49.19;100848.57;108068;1286;22002;-70
2023/09/13 06:16:59;;;;;;;9.00;3.20;;;;;;;26.03;49.14;100847.05;108112;1278;21996;-71
2023/09/13 06:19:50;;;;;;;7.00;3.00;;;;;;;26.24;48.72;100844.73;108028;1285;21997;-69
2023/09/13 06:22:17;;;;;;;7.20;2.40;;;;;;;26.42;48.59;100840.75;108093;1283;21990;-59
2023/09/13 06:24:44;;;;;;;7.60;2.70;;;;;;;26.62;48.35;100844.70;107881;1288;22769;-68
2023/09/13 06:27:10;;;;;;;7.00;2.30;;;;;;;26.80;47.93;100843.05;107976;1288;21994;-66
2023/09/13 06:29:36;;;;;;;5.50;2.60;;;;;;;26.93;47.47;100844.80;108020;1286;22004;-57
2023/09/13 06:32:02;;;;;;;5.50;2.50;;;;;;;27.04;47.18;100843.66;108022;1280;21999;-57
2023/09/13 06:34:28;;;;;;;6.80;2.70;;;;;;;27.19;47.11;100845.40;109149;1283;21995;-68
2023/09/13 06:36:55;;;;;;;5.30;2.90;;;;;;;27.35;46.78;100848.71;107863;1288;21985;-68
2023/09/13 06:39:21;;;;;;;7.10;2.60;;;;;;;27.50;46.31;100847.23;108114;1286;21989;-68
2023/09/13 06:41:46;;;;;;;9.30;2.30;;;;;;;27.63;46.05;100850.58;108037;1288;21988;-57
2023/09/13 06:44:13;;;;;;;12.40;2.90;;;;;;;27.76;45.90;100846.88;108037;1288;22066;-68
2023/09/13 06:46:40;;;;;;;3.70;2.30;;;;;;;27.88;45.63;100853.17;108070;1284;21992;-57
2023/09/13 06:49:06;;;;;;;3.40;2.10;;;;;;;27.99;45.36;100856.27;108098;1288;21992;-57
2023/09/13 06:51:32;;;;;;;6.20;2.40;;;;;;;28.13;45.16;100855.91;108028;1288;21993;-57
2023/09/13 06:53:58;;;;;;;4.70;2.50;;;;;;;28.27;44.88;100859.69;108053;1280;24086;-69
2023/09/13 06:56:24;;;;;;;4.00;2.50;;;;;;;28.43;44.19;100855.77;107933;1288;23053;-69
2023/09/13 06:58:50;;;;;;;5.10;2.70;;;;;;;28.51;43.54;100856.38;108081;1288;22004;-59
2023/09/13 07:01:16;;;;;;;5.30;2.40;;;;;;;28.53;43.56;100858.95;108097;1286;21992;-69
2023/09/13 07:03:41;;;;;;;4.90;2.00;;;;;;;28.59;43.38;100862.92;107983;1283;21992;-69
2023/09/13 07:06:07;;;;;;;5.90;3.10;;;;;;;28.70;42.97;100863.89;108101;1283;21992;-60
2023/09/13 07:08:32;;;;;;;5.00;2.20;;;;;;;28.80;42.85;100861.80;108042;1288;22028;-59
2023/09/13 07:10:58;;;;;;;7.50;2.20;;;;;;;28.93;42.63;100860.73;108080;1288;21994;-59
2023/09/13 07:13:25;;;;;;;3.80;2.50;;;;;;;29.04;42.45;100859.48;108041;1283;22027;-59
2023/09/13 07:15:50;;;;;;;6.80;2.80;;;;;;;29.16;42.11;100859.05;108060;1286;23863;-69
2023/09/13 07:18:16;;;;;;;7.80;2.30;;;;;;;29.21;41.58;100858.45;108101;1286;22005;-68
2023/09/13 07:20:42;;;;;;;3.90;1.90;;;;;;;29.28;41.19;100855.89;108022;1288;21986;-68
2023/09/13 07:23:08;;;;;;;4.50;2.10;;;;;;;29.38;40.81;100859.39;107996;1286;21998;-68
2023/09/13 07:25:34;;;;;;;4.60;2.10;;;;;;;29.51;40.66;100859.61;108033;1283;22000;-68
2023/09/13 07:28:00;;;;;;;6.20;2.20;;;;;;;29.59;40.06;100859.10;108019;1287;21956;-68
2023/09/13 07:30:26;;;;;;;5.40;2.20;;;;;;;29.72;40.21;100852.71;108065;1288;22071;-68
2023/09/13 07:32:52;;;;;;;7.00;2.00;;;;;;;29.83;40.05;100854.32;108008;1285;21984;-59
2023/09/13 07:35:18;;;;;;;5.60;1.90;;;;;;;29.90;39.69;100852.24;108000;1286;21990;-67
2023/09/13 07:37:43;;;;;;;5.10;2.10;;;;;;;30.00;38.90;100855.65;107965;1284;22453;-58
2023/09/13 07:40:10;;;;;;;8.10;2.00;;;;;;;30.10;38.82;100858.55;108013;1288;21989;-58
2023/09/13 07:42:36;;;;;;;8.60;1.80;;;;;;;30.21;38.63;100857.64;108111;1288;21999;-59
2023/09/13 07:45:02;;;;;;;6.10;2.10;;;;;;;30.32;38.39;100856.77;108012;1288;21994;-68
2023/09/13 07:47:28;;;;;;;15.10;3.10;;;;;;;30.42;38.53;100854.48;108013;1288;21996;-58
2023/09/13 07:49:57;;;;;;;5.10;2.00;;;;;;;30.55;38.09;100856.95;107996;1285;21994;-68
2023/09/13 07:52:24;;;;;;;4.90;2.00;;;;;;;30.66;37.57;100854.92;107876;1288;21991;-58
2023/09/13 07:54:50;;;;;;;7.10;2.00;;;;;;;30.73;36.97;100852.65;108100;1288;22026;-58
2023/09/13 07:57:17;;;;;;;7.10;1.70;;;;;;;30.77;36.96;100853.38;108076;1286;21999;-68
2023/09/13 07:59:42;;;;;;;3.60;1.40;;;;;;;30.82;36.78;100853.70;107995;1284;21988;-68
2023/09/13 08:02:08;;;;;;;3.90;1.90;;;;;;;30.90;36.47;100854.59;108062;1288;24401;-67
2023/09/13 08:04:34;;;;;;;3.90;1.90;;;;;;;30.97;35.66;100852.06;108039;1288;21989;-68
2023/09/13 08:07:00;;;;;;;6.60;1.80;;;;;;;31.07;35.85;100849.07;108030;1288;21984;-67
2023/09/13 08:09:26;;;;;;;5.60;2.10;;;;;;;31.15;35.06;100849.97;108018;1288;21992;-58
2023/09/13 08:11:52;;;;;;;4.10;1.90;;;;;;;31.21;35.34;100849.74;108098;1288;21990;-69
2023/09/13 08:14:18;;;;;;;7.20;2.00;;;;;;;31.28;35.44;100846.38;108070;1288;21989;-58
2023/09/13 08:16:44;;;;;;;5.70;2.00;;;;;;;31.34;35.22;100845.67;108063;1284;21988;-68
2023/09/13 08:19:10;;;;;;;4.20;1.90;;;;;;;31.46;35.28;100841.33;107998;1288;21990;-69
2023/09/13 08:21:36;;;;;;;4.00;2.20;;;;;;;31.63;34.75;100841.87;108014;1288;21979;-58
2023/09/13 08:24:03;;;;;;;5.60;2.70;;;;;;;31.76;34.54;100838.14;108059;1288;21994;-58
2023/09/13 08:26:33;;;;;;;6.60;2.30;;;;;;;31.82;34.40;100836.48;108089;1288;21993;-58
2023/09/13 08:28:58;;;;;;;5.90;2.50;;;;;;;31.89;34.58;100836.00;108050;1288;22032;-67
2023/09/13 08:31:25;;;;;;;5.10;2.40;;;;;;;32.06;34.71;100838.55;108045;1288;22002;-69
2023/09/13 08:33:54;;;;;;;9.60;2.70;;;;;;;32.27;34.77;100843.30;108041;1283;22002;-58
2023/09/13 08:36:20;;;;;;;5.40;2.20;;;;;;;32.46;34.71;100843.08;108120;1288;21988;-67
2023/09/13 08:38:45;;;;;;;12.00;3.20;;;;;;;32.49;34.02;100838.39;108105;1288;22030;-67
2023/09/13 08:41:15;;;;;;;4.70;2.30;;;;;;;32.55;34.79;100835.98;108099;1288;22023;-68
2023/09/13 08:43:41;;;;;;;5.30;2.60;;;;;;;32.73;34.38;100832.80;108033;1288;22453;-59
2023/09/13 08:46:07;;;;;;;9.10;2.60;;;;;;;32.81;34.09;100832.59;108099;1281;22005;-67
2023/09/13 08:48:34;;;;;;;5.30;2.40;;;;;;;32.85;33.88;100831.50;107926;1288;21991;-67
2023/09/13 08:51:03;;;;;;;2.90;2.00;;;;;;;32.88;33.93;100829.70;107853;1288;21990;-59
2023/09/13 08:53:29;;;;;;;9.50;2.30;;;;;;;32.94;33.60;100828.02;107794;1285;23140;-58
2023/09/13 08:55:55;;;;;;;4.40;2.40;;;;;;;32.99;33.61;100822.79;107760;1286;21965;-59
2023/09/13 08:58:21;;;;;;;5.40;2.10;;;;;;;33.11;33.71;100821.83;107752;1283;21997;-69
2023/09/13 09:00:48;;;;;;;6.40;2.40;;;;;;;33.19;33.07;100818.91;107837;1288;21995;-69
2023/09/13 09:03:13;;;;;;;3.40;2.00;;;;;;;33.35;32.98;100813.73;108037;1288;22101;-59
2023/09/13 09:05:39;;;;;;;5.80;2.10;;;;;;;33.52;32.89;100811.64;108005;1279;21993;-69
2023/09/13 09:08:05;;;;;;;4.60;2.10;;;;;;;33.56;32.13;100809.62;107801;1288;21996;-68
2023/09/13 09:10:31;;;;;;;3.50;2.10;;;;;;;33.58;31.76;100811.23;107746;1285;22737;-69
2023/09/13 09:12:57;;;;;;;13.60;2.30;;;;;;;33.62;31.98;100807.36;107818;1283;21993;-59
2023/09/13 09:15:23;;;;;;;7.30;2.30;;;;;;;33.73;31.97;100804.19;107816;1289;21995;-69
2023/09/13 09:17:49;;;;;;;5.60;2.10;;;;;;;33.81;31.49;100801.38;107774;1289;21999;-68
2023/09/13 09:20:14;;;;;;;10.30;3.10;;;;;;;33.74;30.80;100795.59;107946;1282;21998;-59
2023/09/13 09:22:41;;;;;;;3.90;1.90;;;;;;;33.72;30.97;100798.63;107864;1277;21993;-67
2023/09/13 09:25:10;;;;;;;3.00;1.80;;;;;;;33.81;30.73;100795.55;107936;1289;21976;-68
2023/09/13 09:27:38;;;;;;;8.50;2.60;;;;;;;33.88;30.85;100793.01;107853;1283;21996;-69
2023/09/13 09:30:05;;;;;;;4.70;2.20;;;;;;;34.04;30.11;100796.65;107875;1289;21993;-59
2023/09/13 09:32:31;;;;;;;4.70;3.00;;;;;;;33.94;29.59;100796.41;107825;1289;22461;-68
2023/09/13 09:34:59;;;;;;;4.50;2.40;;;;;;;33.80;29.45;100792.20;107830;1289;21993;-68
2023/09/13 09:37:33;;;;;;;2.90;1.90;;;;;;;33.69;29.61;100792.42;107809;1288;23459;-68
2023/09/13 09:39:59;;;;;;;4.70;2.10;;;;;;;33.68;29.80;100793.84;107912;1288;21991;-68
2023/09/13 09:42:25;;;;;;;6.80;2.50;;;;;;;33.70;29.60;100791.98;107829;1283;24080;-68
2023/09/13 09:44:51;;;;;;;4.00;1.80;;;;;;;33.79;29.33;100789.91;107930;1286;22040;-69
2023/09/13 09:47:18;;;;;;;4.70;1.90;;;;;;;33.91;29.62;100787.95;107986;1286;22036;-68
2023/09/13 09:49:44;;;;;;;5.30;2.20;;;;;;;34.00;29.44;100785.38;108047;1288;24339;-68
2023/09/13 09:52:10;;;;;;;8.20;2.50;;;;;;;34.07;29.00;100786.70;107935;1289;21990;-68
2023/09/13 09:54:36;;;;;;;9.70;2.70;;;;;;;34.13;28.72;100781.92;108008;1289;22012;-58
2023/09/13 09:57:03;;;;;;;3.90;2.40;;;;;;;34.20;28.49;100779.16;107835;1289;22031;-69
2023/09/13 09:59:29;;;;;;;3.80;2.30;;;;;;;34.20;28.22;100780.52;107865;1289;23731;-58
2023/09/13 10:01:58;;;;;;;3.30;2.10;;;;;;;34.20;28.46;100781.31;107770;1289;21995;-59
2023/09/13 10:04:24;;;;;;;5.60;2.90;;;;;;;34.20;28.52;100782.78;107839;1289;22000;-69
2023/09/13 10:07:00;;;;;;;14.40;2.70;;;;;;;34.30;28.37;100780.83;107777;1288;21993;-59
2023/09/13 10:09:45;;;;;;;6.50;2.10;;;;;;;34.38;27.83;100786.09;107795;1289;21998;-70
2023/09/13 10:12:11;;;;;;;5.70;2.10;;;;;;;34.40;27.94;100783.73;108120;1288;22084;-59
2023/09/13 10:14:39;;;;;;;7.00;2.30;;;;;;;34.47;28.00;100778.92;108104;1280;21996;-59
2023/09/13 10:17:05;;;;;;;5.60;2.10;;;;;;;34.59;27.92;100782.10;108109;1282;22000;-68
2023/09/13 10:19:32;;;;;;;5.50;1.90;;;;;;;34.74;27.90;100777.35;108071;1288;22007;-61
2023/09/13 10:21:57;;;;;;;8.10;2.20;;;;;;;34.76;27.71;100778.73;108072;1288;21993;-68
2023/09/13 10:24:24;;;;;;;4.10;1.90;;;;;;;34.73;27.39;100779.61;108034;1288;21982;-69
2023/09/13 10:26:51;;;;;;;5.40;1.80;;;;;;;34.71;27.23;100779.12;108097;1288;22003;-59
2023/09/13 10:29:23;;;;;;;7.60;2.30;;;;;;;34.66;26.95;100773.27;108088;1286;21993;-69
2023/09/13 10:31:49;;;;;;;4.80;2.00;;;;;;;34.68;26.81;100769.08;108048;1288;22002;-69
2023/09/13 10:34:26;;;;;;;6.30;2.10;;;;;;;34.73;27.12;100767.45;107862;1288;21990;-59
2023/09/13 10:37:33;;;;;;;6.20;1.80;;;;;;;34.80;27.15;100767.26;108099;1288;22000;-59
2023/09/13 10:40:21;;;;;;;4.90;2.10;;;;;;;34.83;27.00;100764.01;107657;1285;22030;-59
2023/09/13 10:42:47;;;;;;;3.10;1.80;;;;;;;34.76;27.11;100764.05;108042;1288;21995;-59
2023/09/13 10:45:17;;;;;;;8.20;2.20;;;;;;;34.78;26.91;100758.39;107822;1287;21990;-58
2023/09/13 10:47:43;;;;;;;11.00;2.90;;;;;;;34.83;26.72;100761.41;107879;1283;22775;-58
2023/09/13 10:50:08;;;;;;;8.40;2.20;;;;;;;35.00;27.25;100758.30;107764;1288;22011;-58
2023/09/13 10:52:34;;;;;;;15.50;2.70;;;;;;;35.17;26.90;100751.30;107814;1281;22008;-58
2023/09/13 10:55:00;;;;;;;5.60;2.30;;;;;;;35.27;26.79;100750.81;108053;1286;21990;-69
2023/09/13 10:57:26;;;;;;;6.10;2.30;;;;;;;35.37;26.87;100751.27;107819;1288;21988;-61
2023/09/13 10:59:52;;;;;;;6.00;2.80;;;;;;;35.49;26.51;100752.02;108088;1288;21992;-59
2023/09/13 11:02:21;;;;;;;4.30;2.20;;;;;;;35.49;26.52;100749.96;108082;1288;21998;-70
2023/09/13 11:04:47;;;;;;;4.30;1.90;;;;;;;35.50;26.10;100740.65;108129;1288;22048;-69
2023/09/13 11:07:16;;;;;;;5.30;2.30;;;;;;;35.55;26.02;100739.33;108058;1288;21991;-59
2023/09/13 11:09:42;;;;;;;6.10;2.10;;;;;;;35.68;26.01;100740.96;107866;1288;21993;-70
2023/09/13 11:12:11;;;;;;;4.60;2.30;;;;;;;35.75;26.18;100739.45;108070;1286;21986;-69
2023/09/13 11:14:37;;;;;;;6.30;1.90;;;;;;;35.77;26.41;100738.69;108071;1283;21993;-70